METAR Data
IDs: Format: Raw Decoded Include TAF

Data at: 0240 UTC 25 Jan 2020

METAR for:KEST (Estherville Muni, IA, US)
Text:KEST 250152Z AUTO 33011KT 10SM OVC016 M03/M04 A2998 RMK AO2 SLP170 T10331044
Temperature: -3.3°C ( 26°F)
Dewpoint: -4.4°C ( 24°F) [RH = 92%]
Pressure (altimeter):29.98 inches Hg (1015.3 mb) [Sea level pressure: 1017.0 mb]
Winds:from the NNW (330 degrees) at 13 MPH (11 knots; 5.7 m/s)
Visibility:10 or more sm (16+ km)
Ceiling:1600 feet AGL
Clouds: overcast cloud deck at 1600 feet AGL
QC Flag:automated observation with no human augmentation